< < Back
Terminal Aerodrome Forecast


Current Version              Previous Versions:   1  2  3  4  5  6  7  8  9  

Terminal Aerodrome Forecast

326
FTUS42 KGSP 281120
TAFAND
TAF
KAND 281120Z 2812/2912 34003KT P6SM SKC
     FM281800 23004KT P6SM FEW200
     FM290800 00000KT P6SM FEW200=



Latest METAR

175
SAUS70 KWBC 290900
MTRAND
METAR KAND 290756Z AUTO 00000KT 10SM CLR M02/M04 A3027 RMK AO2 SLP255
T10221039


USA.gov is the U.S. government's official web portal to all federal, state and local government web resources and services.